• Join FlightAware (Why Join?)
  • Login
  • US Flag 
06:47PM EST


 

Airport Tracker/Info


-or-


 

Live Flight TrackerFlight Track Log ✈ SAS2814 ✈ 15-Jul-2013 ✈ LEAL / ALC - EKCH / CPH

Flight Track Log - Related Links

Times and Time Zones

All times are in EDT time to prevent confusion due to time zone crossing. See the SAS2814 flight status page for this flight to view local times or setup timezone preferences in your user account.

Time Position Orientation Groundspeed Altitude Reporting Facility
EDT Latitude Longitude Course Direction KTS MPH feet Rate Location/Type
06:06AM 38.5844 -0.3956 23° Northeast  Level Estimated
06:07AM 38.6851 -0.3411 23° Northeast  Level Estimated
06:08AM 38.7858 -0.2865 23° Northeast  Level Estimated
06:09AM 38.8865 -0.2317 23° Northeast  Level Estimated
06:10AM 38.9871 -0.1768 23° Northeast  Level Estimated
06:11AM 39.0877 -0.1217 23° Northeast  Level Estimated
06:12AM 39.1883 -0.0664 23° Northeast  Level Estimated
06:13AM 39.2888 -0.0110 23° Northeast  Level Estimated
06:14AM 39.3893 0.0446 23° Northeast  Level Estimated
06:15AM 39.4898 0.1003 23° Northeast  Level Estimated
06:16AM 39.5903 0.1562 23° Northeast  Level Estimated
06:17AM 39.6908 0.2122 23° Northeast  Level Estimated
06:18AM 39.7912 0.2685 23° Northeast  Level Estimated
06:19AM 39.8916 0.3248 23° Northeast  Level Estimated
06:20AM 39.9919 0.3814 23° Northeast  Level Estimated
06:21AM 40.0923 0.4381 23° Northeast  Level Estimated
06:22AM 40.1926 0.4950 23° Northeast  Level Estimated
06:23AM 40.2928 0.5520 23° Northeast  Level Estimated
06:24AM 40.3931 0.6093 23° Northeast  Level Estimated
06:25AM 40.4933 0.6667 24° Northeast  Level Estimated
06:26AM 40.5935 0.7242 24° Northeast  Level Estimated
06:27AM 40.6972 0.7840 24° Northeast  Level Estimated
06:28AM 40.8008 0.8439 24° Northeast  Level Estimated
06:29AM 40.9044 0.9041 24° Northeast  Level Estimated
06:30AM 41.0079 0.9644 24° Northeast  Level Estimated
06:31AM 41.1115 1.0249 24° Northeast  Level Estimated
06:32AM 41.2150 1.0856 24° Northeast  Level Estimated
06:33AM 41.3185 1.1465 24° Northeast  Level Estimated
06:34AM 41.4219 1.2076 24° Northeast  Level Estimated
06:35AM 41.5253 1.2688 24° Northeast  Level Estimated
06:36AM 41.6287 1.3303 24° Northeast  Level Estimated
06:37AM 41.7320 1.3920 24° Northeast  Level Estimated
06:38AM 41.8353 1.4539 24° Northeast  Level Estimated
06:39AM 41.9386 1.5159 24° Northeast  Level Estimated
06:40AM 42.0418 1.5782 24° Northeast  Level Estimated
06:41AM 42.1450 1.6407 24° Northeast  Level Estimated
06:42AM 42.2482 1.7034 24° Northeast  Level Estimated
06:43AM 42.3513 1.7663 24° Northeast  Level Estimated
06:44AM 42.4544 1.8293 24° Northeast  Level Estimated
06:45AM 42.5575 1.8926 24° Northeast  Level Estimated
06:46AM 42.6605 1.9562 24° Northeast  Level Estimated
06:47AM 42.7635 2.0199 24° Northeast  Level Estimated
06:48AM 42.8665 2.0838 24° Northeast  Level Estimated
06:49AM 42.9694 2.1479 25° Northeast  Level Estimated
06:50AM 43.0723 2.2123 25° Northeast  Level Estimated
06:51AM 43.1752 2.2769 25° Northeast  Level Estimated
06:52AM 43.2780 2.3417 25° Northeast  Level Estimated
06:53AM 43.3808 2.4067 25° Northeast  Level Estimated
06:54AM 43.4835 2.4719 25° Northeast  Level Estimated
06:55AM 43.5862 2.5374 25° Northeast  Level Estimated
06:56AM 43.6889 2.6031 25° Northeast  Level Estimated
06:57AM 43.7915 2.6690 25° Northeast  Level Estimated
06:58AM 43.8941 2.7351 25° Northeast  Level Estimated
06:59AM 43.9967 2.8015 25° Northeast  Level Estimated
07:00AM 44.0992 2.8681 25° Northeast  Level Estimated
07:01AM 44.2017 2.9349 25° Northeast  Level Estimated
07:02AM 44.3041 3.0019 25° Northeast  Level Estimated
07:03AM 44.4065 3.0692 25° Northeast  Level Estimated
07:04AM 44.5089 3.1368 25° Northeast  Level Estimated
07:05AM 44.6112 3.2045 25° Northeast  Level Estimated
07:06AM 44.7135 3.2725 25° Northeast  Level Estimated
07:07AM 44.8157 3.3408 25° Northeast  Level Estimated
07:08AM 44.9179 3.4093 25° Northeast  Level Estimated
07:09AM 45.0201 3.4780 25° Northeast  Level Estimated
07:10AM 45.1222 3.5470 25° Northeast  Level Estimated
07:11AM 45.2243 3.6162 26° Northeast  Level Estimated
07:12AM 45.3263 3.6856 26° Northeast  Level Estimated
07:13AM 45.4283 3.7554 26° Northeast  Level Estimated
07:14AM 45.5302 3.8253 26° Northeast  Level Estimated
07:15AM 45.6321 3.8956 26° Northeast  Level Estimated
07:16AM 45.7340 3.9660 26° Northeast  Level Estimated
07:17AM 45.8358 4.0368 26° Northeast  Level Estimated
07:18AM 45.9376 4.1078 26° Northeast  Level Estimated
07:19AM 46.0393 4.1790 26° Northeast  Level Estimated
07:20AM 46.1410 4.2506 26° Northeast  Level Estimated
07:21AM 46.2426 4.3224 26° Northeast  Level Estimated
07:22AM 46.3442 4.3944 26° Northeast  Level Estimated
07:23AM 46.4458 4.4667 26° Northeast  Level Estimated
07:24AM 46.5473 4.5393 26° Northeast  Level Estimated
07:25AM 46.6488 4.6122 26° Northeast  Level Estimated
07:26AM 46.7502 4.6853 26° Northeast  Level Estimated
07:27AM 46.8515 4.7587 26° Northeast  Level Estimated
07:28AM 46.9529 4.8324 26° Northeast  Level Estimated
07:29AM 47.0541 4.9064 26° Northeast  Level Estimated
07:30AM 47.1553 4.9807 27° Northeast  Level Estimated
07:30AM 48.2822 1.2909 27° Northeast 1 1 32,000  Level FlightAware UK
07:31AM 47.2565 5.0552 27° Northeast  Level Estimated
07:31AM 48.3349 1.3354 29° Northeast 1 1 32,000  Level FlightAware UK
07:31AM 48.3871 1.3787 29° Northeast 1 1 32,000  Level FlightAware UK
07:32AM 48.4513 1.4331 29° Northeast 1 1 32,000  Level FlightAware UK
07:32AM 48.5145 1.4867 29° Northeast 1 1 32,000 60 Level FlightAware UK
07:33AM 48.5774 1.5401 29° Northeast 1 1 32,100 600 Climbing FlightAware UK
07:34AM 48.6730 1.6224 30° Northeast 1 1 32,900 840 Climbing FlightAware UK
07:34AM 48.7359 1.6773 30° Northeast 1 1 33,400 900 Climbing FlightAware UK
07:35AM 48.7879 1.7231 30° Northeast 1 1 33,900 540 Climbing FlightAware UK
07:35AM 48.8501 1.7778 30° Northeast 1 1 34,000 60 Climbing FlightAware UK
07:36AM 48.9022 1.8236 30° Northeast 1 1 34,000  Level FlightAware UK
07:36AM 48.9554 1.8689 29° Northeast 1 1 34,000  Level FlightAware UK
07:37AM 49.0217 1.9252 29° Northeast 1 1 34,000  Level FlightAware UK
07:38AM 49.0991 1.9923 30° Northeast 1 1 34,000  Level FlightAware UK
07:38AM 49.1646 2.0495 30° Northeast 1 1 34,000  Level FlightAware UK
07:39AM 49.2188 2.0967 30° Northeast 1 1 34,000  Level FlightAware UK
07:39AM 49.2828 2.1525 30° Northeast 1 1 34,000  Level FlightAware UK
07:40AM 49.3458 2.2079 30° Northeast 1 1 34,000  Level FlightAware UK
07:41AM 49.3995 2.2553 30° Northeast 1 1 34,000  Level FlightAware UK
07:42AM 49.5071 2.3503 30° Northeast 1 1 34,000  Level FlightAware UK
07:45AM 49.9154 2.7153 30° Northeast 1 1 34,000  Level FlightAware UK
07:46AM 50.0329 2.8221 30° Northeast 1 1 34,000  Level FlightAware UK
07:47AM 50.1046 2.8937 33° Northeast 1 1 34,000  Level FlightAware UK
07:48AM 50.2355 3.0327 34° Northeast 1 1 34,000  Level FlightAware UK
07:49AM 50.2863 3.0871 34° Northeast 1 1 34,000  Level FlightAware UK
07:50AM 50.3667 3.1729 34° Northeast 1 1 34,000  Level FlightAware UK
07:50AM 50.4271 3.2379 34° Northeast 1 1 34,000  Level FlightAware UK
07:51AM 50.4773 3.2921 34° Northeast 1 1 34,000  Level FlightAware UK
07:51AM 50.5281 3.3456 34° Northeast 1 1 34,000  Level FlightAware UK
07:53AM 50.7286 3.5629 34° Northeast 1 1 34,000  Level FlightAware UK
07:57AM 51.1283 4.0047 35° Northeast 1 1 34,000  Level FlightAware UK
07:58AM 51.1979 4.0824 35° Northeast 1 1 34,000  Level FlightAware UK
07:59AM 51.3070 4.2045 35° Northeast 1 1 34,000  Level FlightAware UK
08:00AM 51.3666 4.2718 35° Northeast 1 1 34,000  Level FlightAware UK
08:00AM 51.4162 4.3281 35° Northeast 1 1 34,000  Level FlightAware UK
08:01AM 51.4658 4.3845 35° Northeast 1 1 34,000  Level FlightAware UK
08:01AM 51.5155 4.4412 35° Northeast 1 1 34,000  Level FlightAware UK
08:02AM 51.5649 4.4977 35° Northeast 1 1 34,000  Level FlightAware UK
08:02AM 51.6144 4.5543 35° Northeast 1 1 34,000  Level FlightAware UK
08:03AM 51.6835 4.6339 36° Northeast 1 1 34,000  Level FlightAware UK
08:04AM 51.7428 4.7021 35° Northeast 1 1 34,000  Level FlightAware UK
08:04AM 51.7920 4.7590 36° Northeast 1 1 34,000  Level FlightAware UK
08:05AM 51.9295 4.9190 36° Northeast 1 1 34,000  Level FlightAware UK
08:06AM 51.9790 4.9767 36° Northeast 1 1 34,000  Level FlightAware UK
08:06AM 52.0277 5.0338 36° Northeast 1 1 34,000  Level FlightAware UK
08:07AM 52.0967 5.1147 36° Northeast 1 1 34,000  Level FlightAware UK
08:08AM 52.1739 5.2065 36° Northeast 1 1 34,000  Level FlightAware UK
08:09AM 52.3012 5.3572 36° Northeast 1 1 34,000  Level FlightAware UK
08:10AM 52.3594 5.4271 36° Northeast 1 1 34,000  Level FlightAware UK
08:10AM 52.4178 5.4970 36° Northeast 1 1 34,000  Level FlightAware UK
08:11AM 52.4859 5.5788 36° Northeast 1 1 34,000  Level FlightAware UK
08:12AM 52.5441 5.6492 36° Northeast 1 1 34,000  Level FlightAware UK
08:12AM 52.5910 5.7077 37° Northeast 1 1 34,000  Level FlightAware UK
08:13AM 52.6395 5.7665 36° Northeast 1 1 34,000  Level FlightAware UK
08:13AM 52.6882 5.8252 36° Northeast 1 1 34,000  Level FlightAware UK
08:14AM 52.7369 5.8842 36° Northeast 1 1 34,000  Level FlightAware UK
08:14AM 52.7849 5.9430 37° Northeast 1 1 34,000  Level FlightAware UK
08:16AM 52.9412 6.1336 36° Northeast 1 1 34,000  Level FlightAware UK
08:16AM 52.9868 6.1930 38° Northeast 1 1 34,000  Level FlightAware UK
08:17AM 53.0322 6.2518 38° Northeast 1 1 34,000  Level FlightAware UK
08:17AM 53.0902 6.3225 36° Northeast 1 1 34,000  Level FlightAware UK
08:18AM 53.1377 6.3813 37° Northeast 1 1 34,000  Level FlightAware UK
08:18AM 53.1857 6.4405 36° Northeast 1 1 34,000  Level FlightAware UK
08:19AM 53.2320 6.5001 38° Northeast 1 1 34,000  Level FlightAware UK
08:19AM 53.2788 6.5596 37° Northeast 1 1 34,000  Level FlightAware UK
08:20AM 53.3353 6.6311 37° Northeast 1 1 34,000  Level FlightAware UK
08:21AM 53.3825 6.6904 37° Northeast 1 1 34,000  Level FlightAware UK
08:21AM 53.4294 6.7499 37° Northeast 1 1 34,000  Level FlightAware UK
08:22AM 53.4760 6.8097 37° Northeast 1 1 34,000  Level FlightAware UK
08:22AM 53.5224 6.8695 37° Northeast 1 1 34,000  Level FlightAware UK
08:23AM 53.5682 6.9307 38° Northeast 1 1 34,000  Level FlightAware UK
08:23AM 53.6098 7.0006 45° Northeast 1 1 34,000  Level FlightAware UK
08:25AM 53.7019 7.2336 56° Northeast  Level Estimated
08:32AM 54.1350 8.3594 56° Northeast  Level Estimated
08:33AM 54.1961 8.5221 57° Northeast  Level Estimated
08:34AM 54.2569 8.6853 57° Northeast  Level Estimated
08:35AM 54.3174 8.8490 58° Northeast  Level Estimated
08:36AM 54.3778 9.0132 58° Northeast  Level Estimated
08:37AM 54.4379 9.1779 58° Northeast  Level Estimated
08:38AM 54.4978 9.3430 58° Northeast  Level Estimated
08:39AM 54.5575 9.5086 58° Northeast  Level Estimated
08:40AM 54.6170 9.6748 58° Northeast  Level Estimated
08:41AM 54.6762 9.8414 58° Northeast  Level Estimated
08:42AM 54.7352 10.0084 59° Northeast  Level Estimated
08:43AM 54.7940 10.1760 59° Northeast  Level Estimated
08:44AM 54.8525 10.3441 59° Northeast  Level Estimated
08:45AM 54.9108 10.5126 59° Northeast  Level Estimated
08:46AM 54.9689 10.6817 59° Northeast  Level Estimated
08:47AM 55.0267 10.8512 59° Northeast  Level Estimated
08:48AM 55.0843 11.0212 59° Northeast  Level Estimated
08:49AM 55.1417 11.1917 59° Northeast  Level Estimated
08:50AM 55.1988 11.3627 60° Northeast  Level Estimated
08:51AM 55.2556 11.5342 60° Northeast  Level Estimated
08:52AM 55.3123 11.7062 60° Northeast  Level Estimated
08:53AM 55.3687 11.8786 60° Northeast  Level Estimated
08:54AM 55.4248 12.0516 60° Northeast  Level Estimated
08:55AM 55.4808 12.2250 60° Northeast  Level Estimated
08:56AM 55.5364 12.3990 60° Northeast  Level Estimated
08:57AM 55.5918 12.5734 61° Northeast  Level Estimated
08:58AM 55.6179 12.6560 61° Northeast  Level Estimated
08:59AM 55.6179 12.6560 159° South  Level Estimated
09:00AM 55.6179 12.6560 159° South  Level Estimated
09:01AM 55.6179 12.6560 159° South  Level Estimated
09:02AM 55.6179 12.6560 159° South  Level Estimated
09:03AM 55.6179 12.6560 159° South  Level Estimated
09:04AM 55.6179 12.6560 159° South  Level Estimated
09:05AM 55.6179 12.6560 159° South  Level Estimated
09:06AM 55.6179 12.6560 159° South  Level Estimated
09:07AM 55.6179 12.6560 159° South  Level Estimated
09:08AM 55.6179 12.6560 159° South  Level Estimated